sensor_id;sensor_type;location;lat;lon;timestamp;P1;durP1;ratioP1;P2;durP2;ratioP2
80257;SDS011;69565;37.974;23.708;2023-05-10T00:01:05;2.72;;;0.70;;
80257;SDS011;69565;37.974;23.708;2023-05-10T00:03:31;2.85;;;0.60;;
80257;SDS011;69565;37.974;23.708;2023-05-10T00:05:57;1.45;;;0.70;;
80257;SDS011;69565;37.974;23.708;2023-05-10T00:08:23;2.60;;;0.70;;
80257;SDS011;69565;37.974;23.708;2023-05-10T00:10:49;4.35;;;0.70;;
80257;SDS011;69565;37.974;23.708;2023-05-10T00:13:14;1.70;;;0.70;;
80257;SDS011;69565;37.974;23.708;2023-05-10T00:15:40;2.72;;;0.80;;
80257;SDS011;69565;37.974;23.708;2023-05-10T00:18:06;2.85;;;0.80;;
80257;SDS011;69565;37.974;23.708;2023-05-10T00:20:32;1.60;;;0.70;;
80257;SDS011;69565;37.974;23.708;2023-05-10T00:22:57;1.98;;;0.70;;
80257;SDS011;69565;37.974;23.708;2023-05-10T00:25:23;2.15;;;0.85;;
80257;SDS011;69565;37.974;23.708;2023-05-10T00:27:49;1.70;;;0.75;;
80257;SDS011;69565;37.974;23.708;2023-05-10T00:30:15;1.10;;;0.70;;
80257;SDS011;69565;37.974;23.708;2023-05-10T00:32:41;1.98;;;0.80;;
80257;SDS011;69565;37.974;23.708;2023-05-10T00:35:07;1.75;;;0.60;;
80257;SDS011;69565;37.974;23.708;2023-05-10T00:37:33;3.17;;;0.75;;
80257;SDS011;69565;37.974;23.708;2023-05-10T00:39:59;1.65;;;0.75;;
80257;SDS011;69565;37.974;23.708;2023-05-10T00:42:24;3.67;;;0.70;;
80257;SDS011;69565;37.974;23.708;2023-05-10T00:44:50;3.03;;;0.90;;
80257;SDS011;69565;37.974;23.708;2023-05-10T00:47:16;4.82;;;0.70;;
80257;SDS011;69565;37.974;23.708;2023-05-10T00:49:42;4.03;;;0.70;;
80257;SDS011;69565;37.974;23.708;2023-05-10T00:52:09;1.77;;;0.70;;
80257;SDS011;69565;37.974;23.708;2023-05-10T00:54:35;3.50;;;0.70;;
80257;SDS011;69565;37.974;23.708;2023-05-10T00:57:01;3.25;;;0.70;;
80257;SDS011;69565;37.974;23.708;2023-05-10T00:59:27;2.25;;;0.70;;
80257;SDS011;69565;37.974;23.708;2023-05-10T01:01:53;2.15;;;0.60;;
80257;SDS011;69565;37.974;23.708;2023-05-10T01:04:19;1.50;;;0.60;;
80257;SDS011;69565;37.974;23.708;2023-05-10T01:06:50;4.88;;;0.80;;
80257;SDS011;69565;37.974;23.708;2023-05-10T01:09:16;1.83;;;0.60;;
80257;SDS011;69565;37.974;23.708;2023-05-10T01:11:43;2.65;;;0.70;;
80257;SDS011;69565;37.974;23.708;2023-05-10T01:14:09;2.05;;;0.60;;
80257;SDS011;69565;37.974;23.708;2023-05-10T01:16:36;1.63;;;0.65;;
80257;SDS011;69565;37.974;23.708;2023-05-10T01:19:04;1.42;;;0.52;;
80257;SDS011;69565;37.974;23.708;2023-05-10T01:22:02;1.65;;;0.60;;
80257;SDS011;69565;37.974;23.708;2023-05-10T01:28:00;2.53;;;0.60;;
80257;SDS011;69565;37.974;23.708;2023-05-10T01:36:31;1.05;;;0.50;;
80257;SDS011;69565;37.974;23.708;2023-05-10T01:39:11;2.60;;;0.55;;
80257;SDS011;69565;37.974;23.708;2023-05-10T01:41:41;1.52;;;0.50;;
80257;SDS011;69565;37.974;23.708;2023-05-10T01:46:52;3.40;;;0.57;;
80257;SDS011;69565;37.974;23.708;2023-05-10T01:49:24;2.90;;;0.50;;
80257;SDS011;69565;37.974;23.708;2023-05-10T01:51:53;1.50;;;0.50;;
80257;SDS011;69565;37.974;23.708;2023-05-10T01:54:24;3.25;;;0.60;;
80257;SDS011;69565;37.974;23.708;2023-05-10T01:56:52;2.63;;;0.50;;
80257;SDS011;69565;37.974;23.708;2023-05-10T01:59:24;2.03;;;0.60;;
80257;SDS011;69565;37.974;23.708;2023-05-10T02:01:54;0.90;;;0.40;;
80257;SDS011;69565;37.974;23.708;2023-05-10T02:04:24;1.90;;;0.70;;
80257;SDS011;69565;37.974;23.708;2023-05-10T02:06:52;2.15;;;0.60;;
80257;SDS011;69565;37.974;23.708;2023-05-10T02:09:20;1.80;;;0.50;;
80257;SDS011;69565;37.974;23.708;2023-05-10T02:11:46;2.15;;;0.50;;
80257;SDS011;69565;37.974;23.708;2023-05-10T02:14:13;1.42;;;0.40;;
80257;SDS011;69565;37.974;23.708;2023-05-10T02:16:40;3.47;;;0.50;;
80257;SDS011;69565;37.974;23.708;2023-05-10T02:19:09;2.35;;;0.32;;
80257;SDS011;69565;37.974;23.708;2023-05-10T02:21:37;3.00;;;0.50;;
80257;SDS011;69565;37.974;23.708;2023-05-10T02:24:05;3.00;;;0.50;;
80257;SDS011;69565;37.974;23.708;2023-05-10T02:26:32;0.98;;;0.40;;
80257;SDS011;69565;37.974;23.708;2023-05-10T02:28:59;2.35;;;0.40;;
80257;SDS011;69565;37.974;23.708;2023-05-10T02:31:28;1.92;;;0.50;;
80257;SDS011;69565;37.974;23.708;2023-05-10T02:33:56;2.40;;;0.50;;
80257;SDS011;69565;37.974;23.708;2023-05-10T02:36:23;3.10;;;0.50;;
80257;SDS011;69565;37.974;23.708;2023-05-10T02:38:52;1.48;;;0.40;;
80257;SDS011;69565;37.974;23.708;2023-05-10T02:41:19;3.10;;;0.40;;
80257;SDS011;69565;37.974;23.708;2023-05-10T02:43:47;2.60;;;0.40;;
80257;SDS011;69565;37.974;23.708;2023-05-10T02:46:16;3.35;;;0.40;;
80257;SDS011;69565;37.974;23.708;2023-05-10T02:48:41;3.28;;;0.43;;
80257;SDS011;69565;37.974;23.708;2023-05-10T02:51:07;2.10;;;0.40;;
80257;SDS011;69565;37.974;23.708;2023-05-10T02:53:35;2.95;;;0.40;;
80257;SDS011;69565;37.974;23.708;2023-05-10T02:56:10;2.75;;;0.43;;
80257;SDS011;69565;37.974;23.708;2023-05-10T02:58:39;2.72;;;0.50;;
80257;SDS011;69565;37.974;23.708;2023-05-10T03:01:05;3.10;;;0.55;;
80257;SDS011;69565;37.974;23.708;2023-05-10T03:03:32;2.58;;;0.35;;
80257;SDS011;69565;37.974;23.708;2023-05-10T03:05:58;1.20;;;0.40;;
80257;SDS011;69565;37.974;23.708;2023-05-10T03:08:24;1.40;;;0.50;;
80257;SDS011;69565;37.974;23.708;2023-05-10T03:10:55;1.83;;;0.40;;
80257;SDS011;69565;37.974;23.708;2023-05-10T03:16:12;1.85;;;0.40;;
80257;SDS011;69565;37.974;23.708;2023-05-10T03:18:48;1.42;;;0.40;;
80257;SDS011;69565;37.974;23.708;2023-05-10T03:21:27;3.00;;;0.40;;
80257;SDS011;69565;37.974;23.708;2023-05-10T03:24:07;2.42;;;0.40;;
80257;SDS011;69565;37.974;23.708;2023-05-10T03:26:36;1.15;;;0.40;;
80257;SDS011;69565;37.974;23.708;2023-05-10T03:29:04;2.92;;;0.40;;
80257;SDS011;69565;37.974;23.708;2023-05-10T03:31:31;3.30;;;0.40;;
80257;SDS011;69565;37.974;23.708;2023-05-10T03:33:57;0.98;;;0.40;;
80257;SDS011;69565;37.974;23.708;2023-05-10T03:36:23;2.78;;;0.55;;
80257;SDS011;69565;37.974;23.708;2023-05-10T03:38:49;2.53;;;0.40;;
80257;SDS011;69565;37.974;23.708;2023-05-10T03:41:15;2.35;;;0.40;;
80257;SDS011;69565;37.974;23.708;2023-05-10T03:43:40;0.88;;;0.32;;
80257;SDS011;69565;37.974;23.708;2023-05-10T03:46:06;3.35;;;0.40;;
80257;SDS011;69565;37.974;23.708;2023-05-10T03:48:32;1.75;;;0.50;;
80257;SDS011;69565;37.974;23.708;2023-05-10T03:50:58;2.33;;;0.40;;
80257;SDS011;69565;37.974;23.708;2023-05-10T03:53:24;1.63;;;0.40;;
80257;SDS011;69565;37.974;23.708;2023-05-10T03:55:50;2.63;;;0.35;;
80257;SDS011;69565;37.974;23.708;2023-05-10T03:58:15;1.88;;;0.35;;
80257;SDS011;69565;37.974;23.708;2023-05-10T04:00:41;1.10;;;0.40;;
80257;SDS011;69565;37.974;23.708;2023-05-10T04:03:10;0.90;;;0.40;;
80257;SDS011;69565;37.974;23.708;2023-05-10T04:05:38;2.58;;;0.40;;
80257;SDS011;69565;37.974;23.708;2023-05-10T04:08:04;2.00;;;0.40;;
80257;SDS011;69565;37.974;23.708;2023-05-10T04:10:30;1.85;;;0.40;;
80257;SDS011;69565;37.974;23.708;2023-05-10T04:12:57;2.17;;;0.40;;
80257;SDS011;69565;37.974;23.708;2023-05-10T04:15:22;1.10;;;0.30;;
80257;SDS011;69565;37.974;23.708;2023-05-10T04:17:48;2.40;;;0.40;;
80257;SDS011;69565;37.974;23.708;2023-05-10T04:20:15;1.10;;;0.40;;
80257;SDS011;69565;37.974;23.708;2023-05-10T04:22:41;1.42;;;0.40;;
80257;SDS011;69565;37.974;23.708;2023-05-10T04:25:07;2.92;;;0.43;;
80257;SDS011;69565;37.974;23.708;2023-05-10T04:27:33;12.38;;;0.50;;
80257;SDS011;69565;37.974;23.708;2023-05-10T04:29:59;6.82;;;0.60;;
80257;SDS011;69565;37.974;23.708;2023-05-10T04:32:24;5.40;;;0.75;;
80257;SDS011;69565;37.974;23.708;2023-05-10T04:34:50;17.10;;;1.00;;
80257;SDS011;69565;37.974;23.708;2023-05-10T04:37:17;9.55;;;0.63;;
80257;SDS011;69565;37.974;23.708;2023-05-10T04:39:43;4.40;;;0.47;;
80257;SDS011;69565;37.974;23.708;2023-05-10T04:42:09;3.97;;;0.65;;
80257;SDS011;69565;37.974;23.708;2023-05-10T04:44:34;7.30;;;0.50;;
80257;SDS011;69565;37.974;23.708;2023-05-10T04:47:01;7.70;;;0.50;;
80257;SDS011;69565;37.974;23.708;2023-05-10T04:49:27;4.57;;;0.40;;
80257;SDS011;69565;37.974;23.708;2023-05-10T04:51:54;2.28;;;0.50;;
80257;SDS011;69565;37.974;23.708;2023-05-10T04:54:20;4.43;;;0.50;;
80257;SDS011;69565;37.974;23.708;2023-05-10T04:56:46;7.78;;;0.50;;
80257;SDS011;69565;37.974;23.708;2023-05-10T04:59:12;6.20;;;1.13;;
80257;SDS011;69565;37.974;23.708;2023-05-10T05:01:37;4.22;;;0.50;;
80257;SDS011;69565;37.974;23.708;2023-05-10T05:04:04;2.45;;;0.45;;
80257;SDS011;69565;37.974;23.708;2023-05-10T05:06:30;2.53;;;0.50;;
80257;SDS011;69565;37.974;23.708;2023-05-10T05:08:55;3.58;;;0.45;;
80257;SDS011;69565;37.974;23.708;2023-05-10T05:11:22;4.28;;;0.50;;
80257;SDS011;69565;37.974;23.708;2023-05-10T05:13:48;1.60;;;0.50;;
80257;SDS011;69565;37.974;23.708;2023-05-10T05:16:14;1.15;;;0.40;;
80257;SDS011;69565;37.974;23.708;2023-05-10T05:18:42;4.93;;;0.43;;
80257;SDS011;69565;37.974;23.708;2023-05-10T05:21:15;2.38;;;0.40;;
80257;SDS011;69565;37.974;23.708;2023-05-10T05:23:41;3.90;;;0.40;;
80257;SDS011;69565;37.974;23.708;2023-05-10T05:26:07;1.13;;;0.50;;
80257;SDS011;69565;37.974;23.708;2023-05-10T05:28:33;1.30;;;0.40;;
80257;SDS011;69565;37.974;23.708;2023-05-10T05:31:02;3.50;;;0.40;;
80257;SDS011;69565;37.974;23.708;2023-05-10T05:33:28;3.22;;;0.40;;
80257;SDS011;69565;37.974;23.708;2023-05-10T05:35:54;2.45;;;0.35;;
80257;SDS011;69565;37.974;23.708;2023-05-10T05:38:20;2.90;;;0.40;;
80257;SDS011;69565;37.974;23.708;2023-05-10T05:40:46;1.88;;;0.40;;
80257;SDS011;69565;37.974;23.708;2023-05-10T05:43:11;0.88;;;0.32;;
80257;SDS011;69565;37.974;23.708;2023-05-10T05:45:37;2.67;;;0.40;;
80257;SDS011;69565;37.974;23.708;2023-05-10T05:48:03;0.88;;;0.30;;
80257;SDS011;69565;37.974;23.708;2023-05-10T05:50:29;1.13;;;0.38;;
80257;SDS011;69565;37.974;23.708;2023-05-10T05:52:54;0.68;;;0.30;;
80257;SDS011;69565;37.974;23.708;2023-05-10T05:55:21;0.57;;;0.30;;
80257;SDS011;69565;37.974;23.708;2023-05-10T05:57:47;3.05;;;0.50;;
80257;SDS011;69565;37.974;23.708;2023-05-10T06:00:13;2.50;;;0.38;;
80257;SDS011;69565;37.974;23.708;2023-05-10T06:02:39;0.88;;;0.30;;
80257;SDS011;69565;37.974;23.708;2023-05-10T06:05:04;3.40;;;0.40;;
80257;SDS011;69565;37.974;23.708;2023-05-10T06:07:31;2.90;;;0.40;;
80257;SDS011;69565;37.974;23.708;2023-05-10T06:09:57;0.88;;;0.30;;
80257;SDS011;69565;37.974;23.708;2023-05-10T06:12:22;0.80;;;0.30;;
80257;SDS011;69565;37.974;23.708;2023-05-10T06:14:48;2.10;;;0.38;;
80257;SDS011;69565;37.974;23.708;2023-05-10T06:17:14;3.35;;;0.30;;
80257;SDS011;69565;37.974;23.708;2023-05-10T06:19:39;1.40;;;0.40;;
80257;SDS011;69565;37.974;23.708;2023-05-10T06:22:05;3.58;;;0.70;;
80257;SDS011;69565;37.974;23.708;2023-05-10T06:24:31;0.77;;;0.30;;
80257;SDS011;69565;37.974;23.708;2023-05-10T06:26:56;1.20;;;0.40;;
80257;SDS011;69565;37.974;23.708;2023-05-10T06:29:25;1.10;;;0.40;;
80257;SDS011;69565;37.974;23.708;2023-05-10T06:31:51;2.10;;;0.40;;
80257;SDS011;69565;37.974;23.708;2023-05-10T06:34:16;3.17;;;0.40;;
80257;SDS011;69565;37.974;23.708;2023-05-10T06:36:42;2.13;;;0.40;;
80257;SDS011;69565;37.974;23.708;2023-05-10T06:39:08;0.77;;;0.30;;
80257;SDS011;69565;37.974;23.708;2023-05-10T06:41:34;0.52;;;0.30;;
80257;SDS011;69565;37.974;23.708;2023-05-10T06:44:00;0.82;;;0.30;;
80257;SDS011;69565;37.974;23.708;2023-05-10T06:46:25;1.67;;;0.40;;
80257;SDS011;69565;37.974;23.708;2023-05-10T06:48:51;0.50;;;0.30;;
80257;SDS011;69565;37.974;23.708;2023-05-10T06:51:17;0.70;;;0.30;;
80257;SDS011;69565;37.974;23.708;2023-05-10T06:53:43;0.95;;;0.38;;
80257;SDS011;69565;37.974;23.708;2023-05-10T06:56:08;3.33;;;0.30;;
80257;SDS011;69565;37.974;23.708;2023-05-10T06:58:34;1.77;;;0.28;;
80257;SDS011;69565;37.974;23.708;2023-05-10T07:01:03;1.90;;;0.30;;
80257;SDS011;69565;37.974;23.708;2023-05-10T07:03:30;1.75;;;0.30;;
80257;SDS011;69565;37.974;23.708;2023-05-10T07:06:02;0.93;;;0.35;;
80257;SDS011;69565;37.974;23.708;2023-05-10T07:08:33;3.05;;;0.30;;
80257;SDS011;69565;37.974;23.708;2023-05-10T07:11:02;2.47;;;0.30;;
80257;SDS011;69565;37.974;23.708;2023-05-10T07:13:33;2.40;;;0.33;;
80257;SDS011;69565;37.974;23.708;2023-05-10T07:15:59;3.40;;;0.40;;
80257;SDS011;69565;37.974;23.708;2023-05-10T07:18:27;2.15;;;0.35;;
80257;SDS011;69565;37.974;23.708;2023-05-10T07:20:53;0.98;;;0.38;;
80257;SDS011;69565;37.974;23.708;2023-05-10T07:23:18;1.30;;;0.40;;
80257;SDS011;69565;37.974;23.708;2023-05-10T07:25:45;0.93;;;0.30;;
80257;SDS011;69565;37.974;23.708;2023-05-10T07:28:17;0.52;;;0.30;;
80257;SDS011;69565;37.974;23.708;2023-05-10T07:30:43;2.00;;;0.40;;
80257;SDS011;69565;37.974;23.708;2023-05-10T07:33:10;3.33;;;0.35;;
80257;SDS011;69565;37.974;23.708;2023-05-10T07:35:37;0.65;;;0.30;;
80257;SDS011;69565;37.974;23.708;2023-05-10T07:38:03;1.15;;;0.40;;
80257;SDS011;69565;37.974;23.708;2023-05-10T07:40:28;1.98;;;0.40;;
80257;SDS011;69565;37.974;23.708;2023-05-10T07:42:56;2.00;;;0.30;;
80257;SDS011;69565;37.974;23.708;2023-05-10T07:45:22;2.55;;;0.38;;
80257;SDS011;69565;37.974;23.708;2023-05-10T07:47:48;1.73;;;0.30;;
80257;SDS011;69565;37.974;23.708;2023-05-10T07:50:14;4.10;;;0.40;;
80257;SDS011;69565;37.974;23.708;2023-05-10T07:52:40;2.67;;;0.47;;
80257;SDS011;69565;37.974;23.708;2023-05-10T07:55:07;0.80;;;0.40;;
80257;SDS011;69565;37.974;23.708;2023-05-10T07:57:33;1.45;;;0.40;;
80257;SDS011;69565;37.974;23.708;2023-05-10T07:59:59;0.93;;;0.30;;
80257;SDS011;69565;37.974;23.708;2023-05-10T08:02:25;0.82;;;0.40;;
80257;SDS011;69565;37.974;23.708;2023-05-10T08:04:51;2.83;;;0.47;;
80257;SDS011;69565;37.974;23.708;2023-05-10T08:07:17;1.42;;;0.40;;
80257;SDS011;69565;37.974;23.708;2023-05-10T08:09:42;2.92;;;0.43;;
80257;SDS011;69565;37.974;23.708;2023-05-10T08:12:08;2.03;;;0.40;;
80257;SDS011;69565;37.974;23.708;2023-05-10T08:14:35;4.00;;;0.40;;
80257;SDS011;69565;37.974;23.708;2023-05-10T08:17:02;3.45;;;0.40;;
80257;SDS011;69565;37.974;23.708;2023-05-10T08:19:28;1.50;;;0.40;;
80257;SDS011;69565;37.974;23.708;2023-05-10T08:21:54;1.63;;;0.40;;
80257;SDS011;69565;37.974;23.708;2023-05-10T08:24:21;2.75;;;0.40;;
80257;SDS011;69565;37.974;23.708;2023-05-10T08:26:47;1.58;;;0.50;;
80257;SDS011;69565;37.974;23.708;2023-05-10T08:29:13;1.42;;;0.40;;
80257;SDS011;69565;37.974;23.708;2023-05-10T08:31:39;2.88;;;0.50;;
80257;SDS011;69565;37.974;23.708;2023-05-10T08:34:05;0.88;;;0.40;;
80257;SDS011;69565;37.974;23.708;2023-05-10T08:36:31;1.05;;;0.40;;
80257;SDS011;69565;37.974;23.708;2023-05-10T08:39:00;2.53;;;0.40;;
80257;SDS011;69565;37.974;23.708;2023-05-10T08:43:56;1.30;;;0.50;;
80257;SDS011;69565;37.974;23.708;2023-05-10T08:46:29;1.15;;;0.50;;
80257;SDS011;69565;37.974;23.708;2023-05-10T08:48:58;0.88;;;0.30;;
80257;SDS011;69565;37.974;23.708;2023-05-10T08:51:29;0.77;;;0.47;;
80257;SDS011;69565;37.974;23.708;2023-05-10T08:53:59;0.57;;;0.30;;
80257;SDS011;69565;37.974;23.708;2023-05-10T08:56:25;1.05;;;0.40;;
80257;SDS011;69565;37.974;23.708;2023-05-10T08:58:51;1.13;;;0.40;;
80257;SDS011;69565;37.974;23.708;2023-05-10T09:01:17;2.78;;;0.40;;
80257;SDS011;69565;37.974;23.708;2023-05-10T09:03:46;0.93;;;0.40;;
80257;SDS011;69565;37.974;23.708;2023-05-10T09:06:12;2.25;;;0.40;;
80257;SDS011;69565;37.974;23.708;2023-05-10T09:08:38;0.90;;;0.40;;
80257;SDS011;69565;37.974;23.708;2023-05-10T09:11:06;0.73;;;0.40;;
80257;SDS011;69565;37.974;23.708;2023-05-10T09:13:36;1.45;;;0.40;;
80257;SDS011;69565;37.974;23.708;2023-05-10T09:16:02;0.90;;;0.50;;
80257;SDS011;69565;37.974;23.708;2023-05-10T09:18:29;1.20;;;0.40;;
80257;SDS011;69565;37.974;23.708;2023-05-10T09:20:54;1.38;;;0.30;;
80257;SDS011;69565;37.974;23.708;2023-05-10T09:23:20;1.02;;;0.40;;
80257;SDS011;69565;37.974;23.708;2023-05-10T09:25:46;1.05;;;0.40;;
80257;SDS011;69565;37.974;23.708;2023-05-10T09:28:12;2.03;;;0.40;;
80257;SDS011;69565;37.974;23.708;2023-05-10T09:30:39;1.38;;;0.40;;
80257;SDS011;69565;37.974;23.708;2023-05-10T09:33:05;0.73;;;0.40;;
80257;SDS011;69565;37.974;23.708;2023-05-10T09:35:31;0.65;;;0.40;;
80257;SDS011;69565;37.974;23.708;2023-05-10T09:38:02;1.05;;;0.40;;
80257;SDS011;69565;37.974;23.708;2023-05-10T09:40:29;1.05;;;0.40;;
80257;SDS011;69565;37.974;23.708;2023-05-10T09:45:22;0.90;;;0.50;;
80257;SDS011;69565;37.974;23.708;2023-05-10T09:47:49;2.25;;;0.45;;
80257;SDS011;69565;37.974;23.708;2023-05-10T09:50:15;1.27;;;0.40;;
80257;SDS011;69565;37.974;23.708;2023-05-10T09:52:49;0.70;;;0.35;;
80257;SDS011;69565;37.974;23.708;2023-05-10T09:55:16;1.10;;;0.30;;
80257;SDS011;69565;37.974;23.708;2023-05-10T09:57:44;1.50;;;0.40;;
80257;SDS011;69565;37.974;23.708;2023-05-10T10:00:15;0.70;;;0.30;;
80257;SDS011;69565;37.974;23.708;2023-05-10T10:02:53;1.00;;;0.35;;
80257;SDS011;69565;37.974;23.708;2023-05-10T10:05:20;1.38;;;0.40;;
80257;SDS011;69565;37.974;23.708;2023-05-10T10:07:46;3.38;;;0.35;;
80257;SDS011;69565;37.974;23.708;2023-05-10T10:10:14;1.42;;;0.38;;
80257;SDS011;69565;37.974;23.708;2023-05-10T10:12:40;2.75;;;0.40;;
80257;SDS011;69565;37.974;23.708;2023-05-10T10:15:07;0.93;;;0.40;;
80257;SDS011;69565;37.974;23.708;2023-05-10T10:17:33;1.20;;;0.40;;
80257;SDS011;69565;37.974;23.708;2023-05-10T10:20:03;2.15;;;0.40;;
80257;SDS011;69565;37.974;23.708;2023-05-10T10:22:30;2.92;;;0.40;;
80257;SDS011;69565;37.974;23.708;2023-05-10T10:24:55;0.77;;;0.30;;
80257;SDS011;69565;37.974;23.708;2023-05-10T10:27:31;3.53;;;0.30;;
80257;SDS011;69565;37.974;23.708;2023-05-10T10:30:25;1.00;;;0.32;;
80257;SDS011;69565;37.974;23.708;2023-05-10T10:35:49;4.47;;;0.40;;
80257;SDS011;69565;37.974;23.708;2023-05-10T10:38:17;0.98;;;0.30;;
80257;SDS011;69565;37.974;23.708;2023-05-10T10:40:43;1.15;;;0.30;;
80257;SDS011;69565;37.974;23.708;2023-05-10T10:43:24;2.75;;;0.38;;
80257;SDS011;69565;37.974;23.708;2023-05-10T10:48:38;2.33;;;0.40;;
80257;SDS011;69565;37.974;23.708;2023-05-10T10:51:06;1.45;;;0.40;;
80257;SDS011;69565;37.974;23.708;2023-05-10T10:53:32;4.50;;;0.30;;
80257;SDS011;69565;37.974;23.708;2023-05-10T10:56:07;0.95;;;0.30;;
80257;SDS011;69565;37.974;23.708;2023-05-10T10:58:35;2.58;;;0.30;;
80257;SDS011;69565;37.974;23.708;2023-05-10T11:01:18;2.33;;;0.30;;
80257;SDS011;69565;37.974;23.708;2023-05-10T11:06:36;1.95;;;0.30;;
80257;SDS011;69565;37.974;23.708;2023-05-10T11:09:05;1.00;;;0.32;;
80257;SDS011;69565;37.974;23.708;2023-05-10T11:11:58;2.45;;;0.30;;
80257;SDS011;69565;37.974;23.708;2023-05-10T11:14:26;1.35;;;0.35;;
80257;SDS011;69565;37.974;23.708;2023-05-10T11:16:53;0.90;;;0.30;;
80257;SDS011;69565;37.974;23.708;2023-05-10T11:19:19;0.80;;;0.40;;
80257;SDS011;69565;37.974;23.708;2023-05-10T11:24:14;0.63;;;0.30;;
80257;SDS011;69565;37.974;23.708;2023-05-10T11:26:41;1.23;;;0.40;;
80257;SDS011;69565;37.974;23.708;2023-05-10T11:29:08;0.85;;;0.30;;
80257;SDS011;69565;37.974;23.708;2023-05-10T11:31:34;1.58;;;0.40;;
80257;SDS011;69565;37.974;23.708;2023-05-10T11:34:03;0.60;;;0.30;;
80257;SDS011;69565;37.974;23.708;2023-05-10T11:36:29;1.15;;;0.30;;
80257;SDS011;69565;37.974;23.708;2023-05-10T11:38:58;0.50;;;0.30;;
80257;SDS011;69565;37.974;23.708;2023-05-10T11:41:25;1.05;;;0.30;;
80257;SDS011;69565;37.974;23.708;2023-05-10T11:46:58;1.45;;;0.30;;
80257;SDS011;69565;37.974;23.708;2023-05-10T11:49:25;1.90;;;0.30;;
80257;SDS011;69565;37.974;23.708;2023-05-10T11:51:51;0.68;;;0.30;;
80257;SDS011;69565;37.974;23.708;2023-05-10T11:54:17;0.70;;;0.35;;
80257;SDS011;69565;37.974;23.708;2023-05-10T11:56:42;0.90;;;0.40;;
80257;SDS011;69565;37.974;23.708;2023-05-10T11:59:09;1.00;;;0.40;;
80257;SDS011;69565;37.974;23.708;2023-05-10T12:01:35;2.10;;;0.40;;
80257;SDS011;69565;37.974;23.708;2023-05-10T12:04:01;1.38;;;0.30;;
80257;SDS011;69565;37.974;23.708;2023-05-10T12:06:28;1.05;;;0.40;;
80257;SDS011;69565;37.974;23.708;2023-05-10T12:08:56;3.30;;;0.38;;
80257;SDS011;69565;37.974;23.708;2023-05-10T12:11:27;4.40;;;0.30;;
80257;SDS011;69565;37.974;23.708;2023-05-10T12:13:53;5.03;;;0.30;;
80257;SDS011;69565;37.974;23.708;2023-05-10T12:16:20;1.10;;;0.40;;
80257;SDS011;69565;37.974;23.708;2023-05-10T12:18:51;1.05;;;0.40;;
80257;SDS011;69565;37.974;23.708;2023-05-10T12:21:19;1.10;;;0.30;;
80257;SDS011;69565;37.974;23.708;2023-05-10T12:23:46;2.75;;;0.45;;
80257;SDS011;69565;37.974;23.708;2023-05-10T12:26:14;2.15;;;0.30;;
80257;SDS011;69565;37.974;23.708;2023-05-10T12:28:40;0.55;;;0.40;;
80257;SDS011;69565;37.974;23.708;2023-05-10T12:31:06;1.05;;;0.40;;
80257;SDS011;69565;37.974;23.708;2023-05-10T12:33:40;1.40;;;0.30;;
80257;SDS011;69565;37.974;23.708;2023-05-10T12:36:08;1.27;;;0.30;;
80257;SDS011;69565;37.974;23.708;2023-05-10T12:38:39;1.10;;;0.35;;
80257;SDS011;69565;37.974;23.708;2023-05-10T12:41:09;2.08;;;0.38;;
80257;SDS011;69565;37.974;23.708;2023-05-10T12:43:36;1.38;;;0.38;;
80257;SDS011;69565;37.974;23.708;2023-05-10T12:46:06;2.60;;;0.30;;
80257;SDS011;69565;37.974;23.708;2023-05-10T12:48:44;0.50;;;0.30;;
80257;SDS011;69565;37.974;23.708;2023-05-10T12:51:11;1.95;;;0.30;;
80257;SDS011;69565;37.974;23.708;2023-05-10T12:53:42;0.88;;;0.40;;
80257;SDS011;69565;37.974;23.708;2023-05-10T12:56:10;1.05;;;0.40;;
80257;SDS011;69565;37.974;23.708;2023-05-10T12:58:36;1.02;;;0.38;;
80257;SDS011;69565;37.974;23.708;2023-05-10T13:01:03;0.68;;;0.40;;
80257;SDS011;69565;37.974;23.708;2023-05-10T13:03:29;0.60;;;0.30;;
80257;SDS011;69565;37.974;23.708;2023-05-10T13:05:55;1.77;;;0.40;;
80257;SDS011;69565;37.974;23.708;2023-05-10T13:08:21;1.45;;;0.30;;
80257;SDS011;69565;37.974;23.708;2023-05-10T13:10:46;1.25;;;0.40;;
80257;SDS011;69565;37.974;23.708;2023-05-10T13:13:12;2.25;;;0.40;;
80257;SDS011;69565;37.974;23.708;2023-05-10T13:15:39;1.23;;;0.40;;
80257;SDS011;69565;37.974;23.708;2023-05-10T13:18:04;0.90;;;0.40;;
80257;SDS011;69565;37.974;23.708;2023-05-10T13:20:30;0.82;;;0.40;;
80257;SDS011;69565;37.974;23.708;2023-05-10T13:22:56;1.13;;;0.40;;
80257;SDS011;69565;37.974;23.708;2023-05-10T13:25:21;1.30;;;0.38;;
80257;SDS011;69565;37.974;23.708;2023-05-10T13:27:48;3.72;;;0.32;;
80257;SDS011;69565;37.974;23.708;2023-05-10T13:30:13;3.80;;;0.30;;
80257;SDS011;69565;37.974;23.708;2023-05-10T13:32:39;2.25;;;0.35;;
80257;SDS011;69565;37.974;23.708;2023-05-10T13:35:06;1.67;;;0.40;;
80257;SDS011;69565;37.974;23.708;2023-05-10T13:37:32;1.17;;;0.30;;
80257;SDS011;69565;37.974;23.708;2023-05-10T13:40:02;0.70;;;0.30;;
80257;SDS011;69565;37.974;23.708;2023-05-10T13:42:29;1.88;;;0.40;;
80257;SDS011;69565;37.974;23.708;2023-05-10T13:44:54;1.70;;;0.30;;
80257;SDS011;69565;37.974;23.708;2023-05-10T13:47:20;4.70;;;0.47;;
80257;SDS011;69565;37.974;23.708;2023-05-10T13:49:47;3.15;;;0.50;;
80257;SDS011;69565;37.974;23.708;2023-05-10T13:52:13;1.30;;;0.52;;
80257;SDS011;69565;37.974;23.708;2023-05-10T13:54:38;3.05;;;0.98;;
80257;SDS011;69565;37.974;23.708;2023-05-10T13:57:04;4.65;;;2.40;;
80257;SDS011;69565;37.974;23.708;2023-05-10T13:59:31;9.18;;;5.40;;
80257;SDS011;69565;37.974;23.708;2023-05-10T14:01:57;13.00;;;8.30;;
80257;SDS011;69565;37.974;23.708;2023-05-10T14:04:24;19.10;;;12.32;;
80257;SDS011;69565;37.974;23.708;2023-05-10T14:06:50;18.98;;;13.20;;
80257;SDS011;69565;37.974;23.708;2023-05-10T14:09:16;20.55;;;14.15;;
80257;SDS011;69565;37.974;23.708;2023-05-10T14:11:42;19.50;;;15.27;;
80257;SDS011;69565;37.974;23.708;2023-05-10T14:14:08;28.70;;;17.33;;
80257;SDS011;69565;37.974;23.708;2023-05-10T14:16:34;25.05;;;18.85;;
80257;SDS011;69565;37.974;23.708;2023-05-10T14:19:00;25.85;;;17.30;;
80257;SDS011;69565;37.974;23.708;2023-05-10T14:21:26;19.98;;;15.73;;
80257;SDS011;69565;37.974;23.708;2023-05-10T14:23:54;17.90;;;12.27;;
80257;SDS011;69565;37.974;23.708;2023-05-10T14:26:20;14.15;;;11.35;;
80257;SDS011;69565;37.974;23.708;2023-05-10T14:28:46;12.50;;;9.75;;
80257;SDS011;69565;37.974;23.708;2023-05-10T14:31:12;10.10;;;7.53;;
80257;SDS011;69565;37.974;23.708;2023-05-10T14:33:40;11.88;;;7.82;;
80257;SDS011;69565;37.974;23.708;2023-05-10T14:36:06;6.93;;;5.22;;
80257;SDS011;69565;37.974;23.708;2023-05-10T14:38:32;11.32;;;4.78;;
80257;SDS011;69565;37.974;23.708;2023-05-10T14:40:58;5.18;;;3.83;;
80257;SDS011;69565;37.974;23.708;2023-05-10T14:43:23;5.15;;;2.58;;
80257;SDS011;69565;37.974;23.708;2023-05-10T14:45:49;4.45;;;2.00;;
80257;SDS011;69565;37.974;23.708;2023-05-10T14:48:15;2.47;;;1.70;;
80257;SDS011;69565;37.974;23.708;2023-05-10T14:50:42;4.95;;;1.73;;
80257;SDS011;69565;37.974;23.708;2023-05-10T14:53:08;2.70;;;1.40;;
80257;SDS011;69565;37.974;23.708;2023-05-10T14:55:34;4.20;;;1.52;;
80257;SDS011;69565;37.974;23.708;2023-05-10T14:58:01;3.72;;;1.10;;
80257;SDS011;69565;37.974;23.708;2023-05-10T15:00:28;1.98;;;0.90;;
80257;SDS011;69565;37.974;23.708;2023-05-10T15:02:54;3.50;;;0.90;;
80257;SDS011;69565;37.974;23.708;2023-05-10T15:05:20;2.83;;;0.80;;
80257;SDS011;69565;37.974;23.708;2023-05-10T15:07:46;2.22;;;0.90;;